Time;durP1;ratioP1;P1;durP2;ratioP2;P2;SDS_P1;SDS_P2;PMS_P1;PMS_P2;Temp;Humidity;BMP_temperature;BMP_pressure;BME280_temperature;BME280_humidity;BME280_pressure;Samples;Min_cycle;Max_cycle;Signal;HPM_P1;HPM_P2
2023/12/17 00:01:08;;;;;;;22.48;15.77;;;10.30;97.30;;;;;;4998860;28;20323;-70
2023/12/17 00:03:33;;;;;;;19.67;14.20;;;10.30;97.40;;;;;;4991793;28;20339;-69
2023/12/17 00:05:59;;;;;;;27.92;15.32;;;10.20;97.40;;;;;;4996009;28;20537;-69
2023/12/17 00:08:25;;;;;;;21.50;14.50;;;10.20;97.30;;;;;;4996869;28;20054;-70
2023/12/17 00:10:51;;;;;;;19.55;13.45;;;10.20;97.40;;;;;;4985270;28;20060;-71
2023/12/17 00:13:18;;;;;;;20.45;13.63;;;10.20;97.40;;;;;;4983904;28;20026;-70
2023/12/17 00:15:44;;;;;;;17.85;12.93;;;10.20;97.40;;;;;;5001188;28;20053;-70
2023/12/17 00:18:11;;;;;;;19.83;13.95;;;10.20;97.40;;;;;;4986022;28;20025;-70
2023/12/17 00:20:37;;;;;;;21.23;13.85;;;10.10;97.40;;;;;;5000404;28;20037;-70
2023/12/17 00:23:04;;;;;;;19.10;14.30;;;10.10;97.40;;;;;;4993609;28;20132;-69
2023/12/17 00:25:30;;;;;;;18.13;13.35;;;10.10;97.40;;;;;;4978886;28;20034;-70
2023/12/17 00:27:56;;;;;;;19.45;13.35;;;10.10;97.50;;;;;;5008168;28;20121;-73
2023/12/17 00:30:22;;;;;;;19.67;13.07;;;10.10;97.40;;;;;;5008141;28;20113;-71
2023/12/17 00:32:48;;;;;;;18.92;13.00;;;10.10;97.40;;;;;;5004168;28;20061;-70
2023/12/17 00:35:13;;;;;;;27.45;17.02;;;10.10;97.40;;;;;;5005071;28;20072;-70
2023/12/17 00:37:39;;;;;;;25.02;16.45;;;10.10;97.40;;;;;;4997647;28;20049;-71
2023/12/17 00:40:06;;;;;;;22.92;15.68;;;10.10;97.50;;;;;;5009795;28;20083;-69
2023/12/17 00:42:32;;;;;;;25.08;16.45;;;10.10;97.50;;;;;;5003030;28;20057;-70
2023/12/17 00:44:57;;;;;;;25.38;15.80;;;10.10;97.50;;;;;;4998144;28;20050;-70
2023/12/17 00:47:23;;;;;;;26.17;16.83;;;10.10;97.40;;;;;;4998950;28;20364;-69
2023/12/17 00:49:49;;;;;;;31.55;22.27;;;10.10;97.40;;;;;;5002709;28;20489;-72
2023/12/17 00:52:14;;;;;;;35.13;23.90;;;10.10;97.40;;;;;;5001857;28;20053;-70
2023/12/17 00:54:40;;;;;;;35.58;23.42;;;10.10;97.40;;;;;;4985276;28;20037;-69
2023/12/17 00:57:06;;;;;;;31.27;20.60;;;10.10;97.40;;;;;;4983235;28;20045;-71
2023/12/17 00:59:31;;;;;;;28.33;20.38;;;10.00;97.40;;;;;;5002066;28;20483;-70
2023/12/17 01:01:57;;;;;;;30.75;20.50;;;10.00;97.30;;;;;;5000376;28;20038;-72
2023/12/17 01:04:22;;;;;;;26.58;19.27;;;10.00;97.30;;;;;;5003002;28;20026;-70
2023/12/17 01:06:48;;;;;;;26.95;18.92;;;9.90;97.30;;;;;;4995552;28;20044;-69
2023/12/17 01:09:14;;;;;;;21.05;13.25;;;9.90;97.30;;;;;;4998273;28;20232;-72
2023/12/17 01:11:39;;;;;;;17.80;11.57;;;9.90;97.10;;;;;;5001873;28;20081;-70
2023/12/17 01:14:05;;;;;;;18.10;9.63;;;9.80;97.00;;;;;;4985000;28;20390;-70
2023/12/17 01:16:30;;;;;;;17.25;9.90;;;9.80;96.90;;;;;;5000654;28;20061;-70
2023/12/17 01:18:56;;;;;;;17.35;9.48;;;9.70;96.90;;;;;;4986229;28;20496;-70
2023/12/17 01:21:22;;;;;;;20.33;8.93;;;9.70;97.00;;;;;;4999124;28;20494;-70
2023/12/17 01:23:48;;;;;;;15.88;8.95;;;9.60;96.80;;;;;;5003445;28;20356;-70
2023/12/17 01:26:22;;;;;;;14.88;7.90;;;9.60;96.80;;;;;;5000748;28;20026;-72
2023/12/17 01:28:49;;;;;;;16.38;9.13;;;9.60;96.60;;;;;;5000779;28;20022;-69
2023/12/17 01:31:14;;;;;;;18.50;8.93;;;9.60;96.50;;;;;;4982035;28;20053;-69
2023/12/17 01:33:40;;;;;;;17.35;8.82;;;9.60;96.60;;;;;;5009023;28;20483;-68
2023/12/17 01:36:06;;;;;;;16.83;9.20;;;9.60;96.70;;;;;;4999973;28;20069;-69
2023/12/17 01:38:32;;;;;;;18.42;9.73;;;9.60;96.70;;;;;;5001736;28;20691;-69
2023/12/17 01:40:57;;;;;;;21.92;10.73;;;9.50;96.70;;;;;;4999029;28;20057;-69
2023/12/17 01:43:23;;;;;;;24.90;11.88;;;9.60;96.70;;;;;;4997543;28;20120;-71
2023/12/17 01:45:49;;;;;;;22.40;11.85;;;9.60;96.50;;;;;;5008743;28;20034;-70
2023/12/17 01:48:15;;;;;;;22.02;12.18;;;9.60;96.60;;;;;;5002483;28;20026;-69
2023/12/17 01:50:41;;;;;;;23.30;12.65;;;9.60;96.50;;;;;;4998695;28;20042;-69
2023/12/17 01:53:08;;;;;;;27.75;13.65;;;9.60;96.50;;;;;;5002737;28;20441;-71
2023/12/17 01:55:33;;;;;;;22.60;15.02;;;9.60;96.50;;;;;;4982085;28;20092;-69
2023/12/17 01:57:59;;;;;;;24.50;15.02;;;9.70;96.50;;;;;;5003469;28;20527;-70
2023/12/17 02:00:25;;;;;;;22.45;14.63;;;9.70;96.50;;;;;;4990180;28;20505;-69
2023/12/17 02:02:52;;;;;;;22.70;14.43;;;9.70;96.60;;;;;;4984436;28;20026;-72
2023/12/17 02:05:18;;;;;;;24.83;14.23;;;9.70;96.60;;;;;;4984356;28;20076;-71
2023/12/17 02:07:43;;;;;;;27.73;14.43;;;9.70;96.70;;;;;;4986081;28;20058;-70
2023/12/17 02:10:09;;;;;;;23.52;13.93;;;9.70;96.60;;;;;;5004439;28;20117;-70
2023/12/17 02:12:35;;;;;;;26.50;16.58;;;9.70;96.60;;;;;;5004444;28;20084;-69
2023/12/17 02:15:00;;;;;;;25.13;16.60;;;9.70;96.60;;;;;;4986734;28;20100;-72
2023/12/17 02:17:28;;;;;;;30.23;18.85;;;9.70;96.70;;;;;;4995950;28;20575;-70
2023/12/17 02:19:54;;;;;;;37.28;21.35;;;9.70;96.70;;;;;;5004646;28;20058;-70
2023/12/17 02:22:22;;;;;;;29.98;18.88;;;9.70;96.60;;;;;;5003722;28;20057;-72
2023/12/17 02:24:48;;;;;;;28.83;18.02;;;9.60;96.50;;;;;;5005405;28;20041;-70
2023/12/17 02:27:23;;;;;;;28.45;19.15;;;9.60;96.60;;;;;;4982041;28;20040;-71
2023/12/17 02:29:49;;;;;;;30.27;19.15;;;9.60;96.60;;;;;;4992665;28;20045;-70
2023/12/17 02:32:16;;;;;;;36.13;22.20;;;9.60;96.50;;;;;;5000511;28;20037;-70
2023/12/17 02:34:41;;;;;;;36.13;23.23;;;9.60;96.40;;;;;;4993121;28;20300;-70
2023/12/17 02:37:07;;;;;;;32.35;22.40;;;9.60;96.40;;;;;;5001665;28;20064;-70
2023/12/17 02:39:33;;;;;;;32.67;23.17;;;9.60;96.40;;;;;;4995046;28;20022;-70
2023/12/17 02:41:58;;;;;;;30.58;19.88;;;9.60;96.40;;;;;;4997016;28;20030;-70
2023/12/17 02:44:24;;;;;;;30.63;20.85;;;9.60;96.40;;;;;;4997395;28;20510;-73
2023/12/17 02:46:51;;;;;;;27.83;19.05;;;9.50;96.30;;;;;;5003060;28;20243;-71
2023/12/17 02:49:16;;;;;;;29.52;21.48;;;9.50;96.20;;;;;;4984327;28;20021;-71
2023/12/17 02:51:42;;;;;;;29.55;20.60;;;9.50;96.20;;;;;;4998024;28;20038;-72
2023/12/17 02:54:07;;;;;;;30.27;20.40;;;9.40;96.20;;;;;;5007572;28;20490;-70
2023/12/17 02:56:40;;;;;;;26.48;19.42;;;9.40;96.30;;;;;;4996344;28;20064;-72
2023/12/17 02:59:10;;;;;;;27.67;18.45;;;9.40;96.30;;;;;;5003742;28;20026;-68
2023/12/17 03:01:36;;;;;;;30.42;19.02;;;9.40;96.30;;;;;;4982242;28;20076;-71
2023/12/17 03:04:04;;;;;;;28.80;18.13;;;9.40;96.20;;;;;;4989176;28;20026;-73
2023/12/17 03:06:30;;;;;;;29.00;18.13;;;9.40;96.30;;;;;;4984023;28;20133;-73
2023/12/17 03:08:55;;;;;;;21.40;15.23;;;9.40;96.30;;;;;;5005856;28;20101;-73
2023/12/17 03:11:21;;;;;;;26.02;13.40;;;9.40;96.40;;;;;;5000992;28;20423;-71
2023/12/17 03:13:46;;;;;;;22.55;10.95;;;9.40;96.40;;;;;;4983178;28;20033;-71
2023/12/17 03:16:12;;;;;;;21.00;11.52;;;9.40;96.40;;;;;;5004389;28;20045;-71
2023/12/17 03:18:38;;;;;;;19.75;10.00;;;9.40;96.50;;;;;;4990334;28;20032;-70
2023/12/17 03:21:05;;;;;;;18.77;10.48;;;9.40;96.60;;;;;;5000198;28;20029;-70
2023/12/17 03:23:31;;;;;;;19.25;10.75;;;9.30;96.60;;;;;;4973618;28;20034;-70
2023/12/17 03:25:57;;;;;;;19.27;10.80;;;9.40;96.70;;;;;;4981155;28;20467;-73
2023/12/17 03:28:23;;;;;;;17.75;11.07;;;9.40;96.60;;;;;;4977770;28;20026;-69
2023/12/17 03:30:48;;;;;;;16.83;10.68;;;9.40;96.70;;;;;;4980472;28;20042;-69
2023/12/17 03:33:14;;;;;;;18.75;11.68;;;9.40;96.70;;;;;;4975654;28;20037;-70
2023/12/17 03:35:40;;;;;;;22.25;11.13;;;9.40;96.60;;;;;;4982449;28;20133;-72
2023/12/17 03:38:06;;;;;;;16.88;10.65;;;9.30;96.70;;;;;;4983675;28;20443;-70
2023/12/17 03:40:32;;;;;;;18.60;11.43;;;9.30;96.70;;;;;;4974604;28;20034;-70
2023/12/17 03:42:58;;;;;;;16.73;10.90;;;9.20;96.60;;;;;;4980629;28;20022;-70
2023/12/17 03:45:24;;;;;;;23.20;12.98;;;9.20;96.80;;;;;;4980742;28;20046;-70
2023/12/17 03:47:50;;;;;;;21.63;11.85;;;9.20;96.80;;;;;;4981223;28;20030;-69
2023/12/17 03:50:17;;;;;;;18.20;12.43;;;9.20;96.80;;;;;;4972387;28;20410;-69
2023/12/17 03:52:47;;;;;;;21.08;10.68;;;9.20;96.80;;;;;;4977633;28;20483;-71
2023/12/17 03:55:14;;;;;;;21.17;11.32;;;9.20;96.80;;;;;;4975143;28;21254;-69
2023/12/17 03:57:40;;;;;;;20.13;11.85;;;9.20;96.80;;;;;;4977769;28;20085;-69
2023/12/17 04:00:06;;;;;;;20.35;12.20;;;9.20;96.90;;;;;;4994549;28;20486;-70
2023/12/17 04:02:32;;;;;;;20.95;12.50;;;9.20;96.80;;;;;;4977942;28;20026;-69
2023/12/17 04:04:58;;;;;;;21.67;12.93;;;9.20;96.90;;;;;;4985377;28;20038;-70
2023/12/17 04:07:26;;;;;;;19.45;12.98;;;9.20;96.80;;;;;;4983374;28;20467;-70
2023/12/17 04:09:52;;;;;;;23.30;14.23;;;9.20;96.90;;;;;;4978019;28;20136;-70
2023/12/17 04:12:17;;;;;;;21.60;14.10;;;9.20;96.90;;;;;;4995793;28;20057;-70
2023/12/17 04:14:43;;;;;;;26.73;14.63;;;9.20;96.90;;;;;;4983993;28;20030;-70
2023/12/17 04:17:09;;;;;;;23.55;14.45;;;9.20;96.90;;;;;;4975255;28;20470;-70
2023/12/17 04:19:34;;;;;;;25.75;15.35;;;9.20;96.90;;;;;;4978230;28;20154;-69
2023/12/17 04:22:00;;;;;;;23.98;14.43;;;9.30;96.80;;;;;;4977263;28;20084;-69
2023/12/17 04:24:26;;;;;;;26.83;16.38;;;9.20;96.70;;;;;;4992012;28;20379;-69
2023/12/17 04:26:51;;;;;;;22.02;14.23;;;9.20;96.60;;;;;;4996666;28;20173;-69
2023/12/17 04:29:17;;;;;;;23.85;14.20;;;9.20;96.60;;;;;;4999054;28;20033;-69
2023/12/17 04:31:43;;;;;;;23.08;14.98;;;9.10;96.60;;;;;;4991249;28;20038;-70
2023/12/17 04:34:10;;;;;;;24.15;15.50;;;9.10;96.60;;;;;;4996071;28;20022;-69
2023/12/17 04:36:35;;;;;;;23.67;15.00;;;9.10;96.60;;;;;;4997694;28;20050;-72
2023/12/17 04:39:01;;;;;;;22.42;14.55;;;9.10;96.60;;;;;;4981031;28;20033;-71
2023/12/17 04:41:27;;;;;;;24.50;15.05;;;9.10;96.50;;;;;;5001187;28;20239;-70
2023/12/17 04:43:52;;;;;;;25.23;15.32;;;9.10;96.60;;;;;;4976163;28;20459;-69
2023/12/17 04:46:19;;;;;;;28.73;17.20;;;9.10;96.40;;;;;;5001493;28;20034;-69
2023/12/17 04:48:44;;;;;;;24.92;16.20;;;9.10;96.40;;;;;;5002361;28;20128;-70
2023/12/17 04:51:10;;;;;;;24.35;16.23;;;9.10;96.40;;;;;;4996560;28;20141;-72
2023/12/17 04:53:36;;;;;;;31.27;18.42;;;9.10;96.30;;;;;;5001772;28;20061;-69
2023/12/17 04:56:02;;;;;;;32.47;19.08;;;9.10;96.30;;;;;;4998867;28;20180;-71
2023/12/17 04:58:28;;;;;;;30.23;20.38;;;9.10;96.20;;;;;;4998062;28;20475;-71
2023/12/17 05:00:58;;;;;;;31.23;19.60;;;9.10;96.20;;;;;;5001821;28;20045;-70
2023/12/17 05:03:27;;;;;;;32.30;20.20;;;9.10;96.10;;;;;;4997053;28;20053;-70
2023/12/17 05:05:53;;;;;;;31.60;19.90;;;9.10;96.00;;;;;;4992307;28;20034;-72
2023/12/17 05:08:19;;;;;;;36.08;21.63;;;9.10;96.00;;;;;;4996128;28;20691;-70
2023/12/17 05:10:45;;;;;;;33.22;22.83;;;9.10;96.00;;;;;;5003924;28;20808;-70
2023/12/17 05:13:11;;;;;;;28.73;21.17;;;9.10;95.80;;;;;;5002318;28;20057;-72
2023/12/17 05:15:37;;;;;;;33.33;21.85;;;9.00;95.80;;;;;;5004051;28;20076;-70
2023/12/17 05:18:03;;;;;;;31.52;21.98;;;9.10;95.80;;;;;;5004249;28;20029;-70
2023/12/17 05:20:28;;;;;;;31.02;22.45;;;9.10;95.80;;;;;;4997469;28;20419;-70
2023/12/17 05:22:54;;;;;;;27.48;20.73;;;9.10;95.70;;;;;;5001026;28;20121;-73
2023/12/17 05:25:21;;;;;;;33.35;23.30;;;9.10;95.70;;;;;;4994917;28;20494;-72
2023/12/17 05:27:46;;;;;;;35.80;25.45;;;9.10;95.70;;;;;;5007376;28;20447;-70
2023/12/17 05:30:13;;;;;;;34.63;24.38;;;9.10;95.70;;;;;;5003336;28;20034;-70
2023/12/17 05:32:39;;;;;;;35.30;25.83;;;9.10;95.70;;;;;;5006908;28;20026;-73
2023/12/17 05:35:05;;;;;;;39.00;27.63;;;9.10;95.50;;;;;;4997388;28;20030;-71
2023/12/17 05:37:31;;;;;;;42.00;30.38;;;9.00;95.60;;;;;;4988923;28;20108;-70
2023/12/17 05:39:57;;;;;;;41.35;31.20;;;9.00;95.40;;;;;;4981802;28;20475;-73
2023/12/17 05:42:22;;;;;;;41.40;31.63;;;9.00;95.30;;;;;;5005342;28;20034;-69
2023/12/17 05:44:48;;;;;;;42.95;33.03;;;8.90;95.30;;;;;;4982295;28;20053;-71
2023/12/17 05:47:13;;;;;;;47.70;32.83;;;8.90;95.20;;;;;;4982347;28;20038;-70
2023/12/17 05:49:39;;;;;;;46.00;32.38;;;8.90;95.10;;;;;;4973007;28;20034;-70
2023/12/17 05:52:07;;;;;;;41.90;31.35;;;8.90;95.10;;;;;;4981915;28;20042;-73
2023/12/17 05:54:33;;;;;;;42.95;32.05;;;8.90;95.10;;;;;;4981429;28;20025;-70
2023/12/17 05:56:59;;;;;;;46.28;33.10;;;8.90;95.20;;;;;;4978471;28;20407;-70
2023/12/17 05:59:24;;;;;;;42.42;30.85;;;8.90;95.10;;;;;;5001492;28;20026;-70
2023/12/17 06:01:50;;;;;;;38.47;30.67;;;8.80;95.00;;;;;;5002262;28;20391;-71
2023/12/17 06:04:16;;;;;;;40.38;30.65;;;8.90;95.00;;;;;;4999188;28;20487;-73
2023/12/17 06:06:41;;;;;;;41.15;28.95;;;8.80;94.80;;;;;;5000192;28;20069;-71
2023/12/17 06:09:07;;;;;;;41.15;28.63;;;8.70;94.80;;;;;;4981145;28;20447;-72
2023/12/17 06:11:33;;;;;;;38.40;27.10;;;8.70;94.80;;;;;;4997200;28;20031;-72
2023/12/17 06:13:59;;;;;;;36.92;27.67;;;8.70;94.70;;;;;;5003677;28;20029;-70
2023/12/17 06:16:24;;;;;;;38.05;27.48;;;8.70;94.50;;;;;;4998563;28;20041;-70
2023/12/17 06:18:51;;;;;;;36.08;28.50;;;8.70;94.60;;;;;;4981400;28;20129;-71
2023/12/17 06:21:21;;;;;;;37.63;27.67;;;8.60;94.50;;;;;;4990523;28;20073;-70
2023/12/17 06:23:46;;;;;;;39.28;28.33;;;8.60;94.70;;;;;;5005214;28;20468;-69
2023/12/17 06:26:12;;;;;;;39.25;29.23;;;8.70;94.50;;;;;;5000639;28;20081;-71
2023/12/17 06:28:38;;;;;;;37.50;28.15;;;8.70;94.50;;;;;;4982238;28;20513;-70
2023/12/17 06:31:03;;;;;;;39.13;28.27;;;8.70;94.60;;;;;;4984825;28;20034;-71
2023/12/17 06:33:29;;;;;;;36.85;25.88;;;8.70;94.50;;;;;;4987117;28;20537;-70
2023/12/17 06:35:54;;;;;;;39.78;26.13;;;8.60;94.60;;;;;;4996831;28;20099;-70
2023/12/17 06:38:20;;;;;;;38.33;27.85;;;8.60;94.50;;;;;;5002652;28;20486;-71
2023/12/17 06:40:46;;;;;;;39.70;26.48;;;8.60;94.50;;;;;;4997543;28;20134;-70
2023/12/17 06:43:12;;;;;;;36.28;26.42;;;8.60;94.50;;;;;;4974301;28;20032;-72
2023/12/17 06:45:38;;;;;;;37.08;26.33;;;8.50;94.60;;;;;;4995299;28;20379;-70
2023/12/17 06:48:04;;;;;;;35.15;25.38;;;8.50;94.70;;;;;;4986072;28;20030;-70
2023/12/17 06:50:30;;;;;;;32.22;24.75;;;8.50;94.70;;;;;;4997802;28;20175;-72
2023/12/17 06:52:55;;;;;;;36.65;25.17;;;8.40;94.80;;;;;;5000203;28;20467;-70
2023/12/17 06:55:21;;;;;;;36.75;25.42;;;8.50;94.60;;;;;;4997814;28;20108;-70
2023/12/17 06:57:47;;;;;;;33.28;23.65;;;8.40;94.70;;;;;;4998800;28;20034;-69
2023/12/17 07:00:15;;;;;;;35.47;23.95;;;8.40;94.70;;;;;;4999882;28;20030;-70
2023/12/17 07:02:41;;;;;;;37.15;24.52;;;8.40;94.60;;;;;;4997563;28;20038;-71
2023/12/17 07:05:08;;;;;;;37.80;23.88;;;8.40;94.60;;;;;;5003034;28;20034;-70
2023/12/17 07:07:34;;;;;;;36.33;22.52;;;8.40;94.60;;;;;;4984604;28;20076;-71
2023/12/17 07:10:00;;;;;;;35.45;22.52;;;8.40;94.50;;;;;;4998561;28;20035;-71
2023/12/17 07:12:25;;;;;;;33.88;21.30;;;8.40;94.50;;;;;;5002313;28;20038;-70
2023/12/17 07:14:51;;;;;;;34.80;21.65;;;8.40;94.60;;;;;;4991344;28;20472;-70
2023/12/17 07:17:16;;;;;;;32.75;19.20;;;8.30;94.60;;;;;;5006777;28;20098;-72
2023/12/17 07:19:42;;;;;;;37.33;20.15;;;8.30;94.50;;;;;;4999912;28;20048;-70
2023/12/17 07:22:08;;;;;;;31.85;19.65;;;8.30;94.60;;;;;;4997972;28;20054;-70
2023/12/17 07:24:34;;;;;;;36.08;20.42;;;8.30;94.60;;;;;;5003091;28;20033;-70
2023/12/17 07:26:59;;;;;;;41.13;25.33;;;8.20;94.60;;;;;;4984830;28;20492;-70
2023/12/17 07:29:26;;;;;;;50.03;26.42;;;8.10;94.80;;;;;;4996433;28;20030;-70
2023/12/17 07:31:52;;;;;;;46.60;25.45;;;8.00;95.00;;;;;;4980222;28;20077;-70
2023/12/17 07:34:17;;;;;;;43.13;24.10;;;8.00;95.10;;;;;;5000935;28;20037;-70
2023/12/17 07:36:43;;;;;;;47.03;25.35;;;7.90;95.00;;;;;;4997518;28;20133;-71
2023/12/17 07:39:09;;;;;;;43.22;24.88;;;7.80;94.90;;;;;;5004693;28;20033;-70
2023/12/17 07:41:34;;;;;;;44.35;23.83;;;7.70;95.00;;;;;;4980879;28;20045;-70
2023/12/17 07:44:00;;;;;;;45.95;22.58;;;7.60;95.20;;;;;;4997753;28;20026;-70
2023/12/17 07:46:25;;;;;;;37.50;21.13;;;7.50;95.20;;;;;;5001508;28;20049;-70
2023/12/17 07:48:51;;;;;;;41.22;21.17;;;7.40;95.20;;;;;;5003630;28;20022;-71
2023/12/17 07:51:17;;;;;;;39.05;21.02;;;7.40;95.40;;;;;;5002279;28;20053;-70
2023/12/17 07:53:43;;;;;;;31.02;19.58;;;7.40;95.20;;;;;;5001475;28;20087;-69
2023/12/17 07:56:09;;;;;;;33.72;20.20;;;7.30;95.30;;;;;;5001646;28;20050;-69
2023/12/17 07:58:35;;;;;;;30.65;18.20;;;7.20;95.20;;;;;;4993908;28;20124;-70
2023/12/17 08:01:00;;;;;;;34.67;19.75;;;7.10;95.20;;;;;;4997561;28;20041;-70
2023/12/17 08:03:26;;;;;;;38.92;21.00;;;7.10;95.30;;;;;;5003110;28;20041;-70
2023/12/17 08:05:52;;;;;;;31.45;19.45;;;7.10;95.10;;;;;;5001658;28;20103;-70
2023/12/17 08:08:18;;;;;;;33.85;19.20;;;7.10;95.20;;;;;;4997742;28;20367;-70
2023/12/17 08:10:44;;;;;;;32.00;18.98;;;7.00;95.20;;;;;;4998362;28;20112;-70
2023/12/17 08:13:11;;;;;;;32.97;19.45;;;7.00;95.20;;;;;;4999615;28;20136;-71
2023/12/17 08:15:37;;;;;;;34.10;20.45;;;7.00;95.30;;;;;;5004130;28;20052;-71
2023/12/17 08:18:02;;;;;;;33.92;20.77;;;7.00;95.10;;;;;;4995549;28;20030;-70
2023/12/17 08:20:28;;;;;;;33.65;19.67;;;7.10;95.00;;;;;;4993455;28;20391;-70
2023/12/17 08:22:53;;;;;;;35.30;20.63;;;7.10;95.00;;;;;;5003210;28;20133;-70
2023/12/17 08:25:19;;;;;;;42.10;23.63;;;7.00;94.90;;;;;;5000256;28;20371;-71
2023/12/17 08:27:45;;;;;;;45.38;24.60;;;7.00;94.90;;;;;;4980448;28;20475;-72
2023/12/17 08:30:11;;;;;;;43.78;25.10;;;7.10;95.00;;;;;;4967044;28;21252;-71
2023/12/17 08:32:37;;;;;;;43.33;25.67;;;7.10;94.80;;;;;;4970659;28;20030;-70
2023/12/17 08:35:03;;;;;;;43.75;25.67;;;7.10;94.90;;;;;;4997150;28;20061;-70
2023/12/17 08:37:29;;;;;;;42.00;22.83;;;7.10;94.70;;;;;;4981034;28;20053;-70
2023/12/17 08:39:56;;;;;;;41.88;24.75;;;7.10;94.50;;;;;;4998110;28;20391;-71
2023/12/17 08:42:22;;;;;;;43.25;24.50;;;7.10;94.40;;;;;;4979230;28;20473;-71
2023/12/17 08:44:49;;;;;;;36.10;22.58;;;7.20;94.20;;;;;;4994994;28;20038;-71
2023/12/17 08:47:15;;;;;;;39.08;23.48;;;7.20;94.10;;;;;;5006139;28;20065;-72
2023/12/17 08:49:41;;;;;;;36.17;21.42;;;7.30;93.70;;;;;;5003489;28;20033;-71
2023/12/17 08:52:07;;;;;;;38.88;20.80;;;7.30;93.60;;;;;;4997464;28;20041;-70
2023/12/17 08:54:33;;;;;;;35.90;20.08;;;7.30;93.00;;;;;;4983449;28;20105;-71
2023/12/17 08:56:58;;;;;;;34.88;20.77;;;7.20;92.80;;;;;;5000413;28;20572;-67
2023/12/17 08:59:24;;;;;;;34.95;18.73;;;7.20;92.70;;;;;;5003035;28;20095;-70
2023/12/17 09:01:49;;;;;;;32.83;18.60;;;7.30;92.70;;;;;;4998933;28;20042;-69
2023/12/17 09:04:16;;;;;;;33.60;17.48;;;7.30;92.40;;;;;;5003756;28;20026;-68
2023/12/17 09:06:44;;;;;;;32.03;17.92;;;7.30;92.10;;;;;;4980328;28;20042;-69
2023/12/17 09:09:11;;;;;;;29.27;16.90;;;7.40;91.90;;;;;;5006294;28;20061;-70
2023/12/17 09:11:37;;;;;;;27.95;15.82;;;7.50;91.60;;;;;;5002375;28;20037;-67
2023/12/17 09:14:03;;;;;;;26.15;16.23;;;7.60;91.50;;;;;;5005293;28;20030;-70
2023/12/17 09:16:28;;;;;;;30.35;16.73;;;7.60;90.80;;;;;;5007723;28;20081;-67
2023/12/17 09:18:54;;;;;;;34.38;16.52;;;7.60;90.80;;;;;;4987999;28;20037;-67
2023/12/17 09:21:19;;;;;;;30.10;17.00;;;7.70;90.40;;;;;;4998287;28;20069;-67
2023/12/17 09:23:45;;;;;;;21.42;15.07;;;7.70;90.20;;;;;;4981648;28;20018;-67
2023/12/17 09:26:11;;;;;;;27.88;15.10;;;7.80;89.80;;;;;;5002839;28;20538;-69
2023/12/17 09:28:36;;;;;;;33.30;16.10;;;7.90;89.60;;;;;;5005327;28;20606;-68
2023/12/17 09:31:02;;;;;;;22.25;14.20;;;8.00;89.50;;;;;;4997875;28;20041;-68
2023/12/17 09:33:28;;;;;;;29.60;16.27;;;8.10;89.20;;;;;;5006190;28;20454;-70
2023/12/17 09:35:53;;;;;;;24.88;14.45;;;8.10;88.80;;;;;;5009320;28;20096;-68
2023/12/17 09:38:19;;;;;;;27.38;13.45;;;8.30;88.50;;;;;;5004044;28;20072;-68
2023/12/17 09:40:48;;;;;;;25.27;14.32;;;8.30;88.00;;;;;;5002830;28;20041;-69
2023/12/17 09:43:15;;;;;;;27.65;14.98;;;8.30;88.10;;;;;;5004967;28;20072;-68
2023/12/17 09:45:42;;;;;;;26.50;14.82;;;8.40;87.90;;;;;;5007965;28;20037;-68
2023/12/17 09:48:08;;;;;;;26.25;13.75;;;8.50;87.50;;;;;;4980348;28;20030;-68
2023/12/17 09:50:33;;;;;;;29.50;13.85;;;8.40;86.90;;;;;;4982724;28;20450;-69
2023/12/17 09:52:59;;;;;;;24.63;13.20;;;8.50;87.00;;;;;;5002332;28;20037;-68
2023/12/17 09:55:25;;;;;;;25.75;13.60;;;8.60;87.10;;;;;;5007309;28;20104;-69
2023/12/17 09:57:51;;;;;;;24.77;13.82;;;8.60;86.80;;;;;;4988178;28;20833;-71
2023/12/17 10:00:17;;;;;;;20.60;12.90;;;8.60;87.00;;;;;;5006020;28;20030;-70
2023/12/17 10:02:43;;;;;;;22.27;13.13;;;8.70;86.70;;;;;;5005576;28;20299;-71
2023/12/17 10:05:09;;;;;;;21.60;12.07;;;8.70;86.60;;;;;;4999513;28;20026;-68
2023/12/17 10:07:36;;;;;;;22.83;12.18;;;8.90;86.10;;;;;;5011630;28;20033;-70
2023/12/17 10:10:03;;;;;;;24.50;12.23;;;8.90;85.70;;;;;;5011939;28;20042;-68
2023/12/17 10:12:29;;;;;;;24.02;11.98;;;9.00;85.50;;;;;;5001485;28;20120;-69
2023/12/17 10:14:55;;;;;;;28.27;12.27;;;9.00;85.10;;;;;;5012910;28;20057;-69
2023/12/17 10:17:21;;;;;;;23.67;12.65;;;9.00;85.20;;;;;;5004627;28;20790;-68
2023/12/17 10:19:53;;;;;;;21.98;12.13;;;9.10;84.90;;;;;;5009712;28;20420;-68
2023/12/17 10:22:19;;;;;;;22.52;11.65;;;9.20;84.20;;;;;;4999532;28;20054;-68
2023/12/17 10:24:45;;;;;;;21.30;11.63;;;9.20;84.50;;;;;;5007222;28;20025;-68
2023/12/17 10:27:19;;;;;;;24.35;13.20;;;9.20;84.40;;;;;;5001630;28;20084;-68
2023/12/17 10:29:50;;;;;;;22.45;13.05;;;9.30;83.80;;;;;;5010930;28;20517;-70
2023/12/17 10:32:20;;;;;;;20.52;11.57;;;9.40;83.80;;;;;;4982859;28;20537;-68
2023/12/17 10:34:46;;;;;;;22.88;11.75;;;9.40;83.50;;;;;;5003368;28;20049;-67
2023/12/17 10:37:15;;;;;;;22.00;11.65;;;9.40;83.20;;;;;;4999457;28;20137;-69
2023/12/17 10:39:41;;;;;;;21.02;12.35;;;9.60;83.10;;;;;;5005453;28;20042;-69
2023/12/17 10:42:08;;;;;;;24.13;11.88;;;9.60;82.50;;;;;;4994928;28;20031;-69
2023/12/17 10:44:35;;;;;;;21.42;11.65;;;9.60;82.80;;;;;;4999116;28;20053;-68
2023/12/17 10:47:03;;;;;;;24.17;11.98;;;9.60;82.60;;;;;;4987540;28;20442;-70
2023/12/17 10:49:30;;;;;;;23.05;11.43;;;9.60;82.30;;;;;;5003567;28;20030;-68
2023/12/17 10:51:59;;;;;;;20.63;11.90;;;9.60;82.30;;;;;;5001679;28;20419;-68
2023/12/17 10:54:25;;;;;;;17.55;11.43;;;9.60;82.30;;;;;;5002858;28;20113;-71
2023/12/17 10:56:54;;;;;;;25.77;12.02;;;9.70;81.90;;;;;;4998682;28;20300;-71
2023/12/17 10:59:41;;;;;;;17.92;10.73;;;9.60;81.80;;;;;;4999070;28;20041;-69
2023/12/17 11:02:10;;;;;;;20.30;11.48;;;9.70;82.10;;;;;;5000845;28;20123;-69
2023/12/17 11:04:36;;;;;;;24.65;11.90;;;9.70;81.90;;;;;;5000100;28;20430;-69
2023/12/17 11:07:02;;;;;;;21.52;11.80;;;9.80;81.50;;;;;;4982334;28;20101;-71
2023/12/17 11:09:31;;;;;;;19.48;11.10;;;9.80;81.40;;;;;;4998075;28;20038;-72
2023/12/17 11:11:57;;;;;;;20.65;12.07;;;9.80;81.10;;;;;;5007264;28;20482;-69
2023/12/17 11:14:23;;;;;;;23.77;13.25;;;9.90;81.40;;;;;;5000276;28;20034;-70
2023/12/17 11:16:48;;;;;;;19.27;11.77;;;9.80;81.60;;;;;;4999380;28;20069;-70
2023/12/17 11:19:14;;;;;;;23.52;13.20;;;9.90;81.50;;;;;;4995757;28;20697;-69
2023/12/17 11:21:44;;;;;;;22.27;12.00;;;9.90;81.40;;;;;;4992910;28;20085;-71
2023/12/17 11:24:10;;;;;;;18.25;11.68;;;9.90;81.20;;;;;;5004203;28;20026;-68
2023/12/17 11:26:40;;;;;;;20.38;11.85;;;10.10;81.00;;;;;;5000280;28;20065;-69
2023/12/17 11:29:31;;;;;;;18.55;11.90;;;10.10;80.90;;;;;;5000283;28;20478;-71
2023/12/17 11:31:58;;;;;;;21.52;10.98;;;10.10;80.60;;;;;;5000700;28;20034;-69
2023/12/17 11:34:24;;;;;;;26.20;13.25;;;10.10;80.60;;;;;;4997526;28;20026;-73
2023/12/17 11:36:51;;;;;;;21.27;12.23;;;10.10;80.50;;;;;;4982728;28;20241;-68
2023/12/17 11:39:16;;;;;;;23.60;12.15;;;10.10;80.60;;;;;;5000635;28;20380;-68
2023/12/17 11:41:42;;;;;;;21.02;11.00;;;10.00;80.90;;;;;;5002254;28;20045;-70
2023/12/17 11:44:09;;;;;;;21.70;11.63;;;10.00;80.60;;;;;;5002400;28;20029;-68
2023/12/17 11:46:34;;;;;;;23.73;13.18;;;9.90;81.00;;;;;;5003076;28;20309;-69
2023/12/17 11:49:00;;;;;;;21.63;12.20;;;9.90;80.70;;;;;;4984177;28;20074;-70
2023/12/17 11:51:26;;;;;;;24.27;11.93;;;10.00;80.90;;;;;;4998125;28;20547;-70
2023/12/17 11:53:52;;;;;;;21.50;12.80;;;10.00;80.90;;;;;;4976357;28;20125;-71
2023/12/17 11:56:28;;;;;;;23.17;13.05;;;9.90;81.20;;;;;;5006361;28;20485;-68
2023/12/17 11:58:54;;;;;;;19.52;12.40;;;10.00;80.80;;;;;;5001285;28;20551;-69
2023/12/17 12:01:20;;;;;;;22.85;12.80;;;10.10;80.70;;;;;;5002601;28;20038;-67
2023/12/17 12:03:46;;;;;;;21.60;12.52;;;10.10;80.80;;;;;;4989612;28;20038;-67
2023/12/17 12:06:13;;;;;;;26.38;13.13;;;10.10;80.40;;;;;;4998755;28;20056;-69
2023/12/17 12:08:41;;;;;;;20.48;12.20;;;10.10;80.10;;;;;;4978418;28;20068;-69
2023/12/17 12:11:11;;;;;;;23.10;12.70;;;10.10;80.40;;;;;;4997293;28;20045;-68
2023/12/17 12:13:43;;;;;;;22.70;11.70;;;10.10;80.50;;;;;;4995528;28;20030;-68
2023/12/17 12:16:09;;;;;;;19.05;11.88;;;10.10;80.60;;;;;;5000590;28;20050;-70
2023/12/17 12:18:35;;;;;;;25.98;13.35;;;10.10;80.40;;;;;;4992016;28;20323;-71
2023/12/17 12:21:00;;;;;;;21.83;12.38;;;10.10;80.70;;;;;;5000534;28;20547;-69
2023/12/17 12:23:26;;;;;;;23.13;12.65;;;10.00;80.80;;;;;;4998754;28;20042;-69
2023/12/17 12:25:59;;;;;;;19.58;12.25;;;10.10;80.70;;;;;;4997108;28;20034;-70
2023/12/17 12:28:25;;;;;;;24.08;12.05;;;10.00;80.80;;;;;;5000725;28;20022;-69
2023/12/17 12:30:51;;;;;;;19.08;12.02;;;10.10;81.10;;;;;;4982433;28;20088;-70